sensor_id;sensor_type;location;lat;lon;timestamp;temperature;humidity
21625;DHT22;10974;51.034;3.744;2022-10-16T04:03:13;13.40;99.90
21625;DHT22;10974;51.034;3.744;2022-10-16T04:05:40;13.40;99.90
21625;DHT22;10974;51.034;3.744;2022-10-16T04:08:06;13.30;99.90
21625;DHT22;10974;51.034;3.744;2022-10-16T04:10:31;13.40;99.90
21625;DHT22;10974;51.034;3.744;2022-10-16T04:12:57;13.40;99.90
21625;DHT22;10974;51.034;3.744;2022-10-16T04:15:24;13.40;99.90
21625;DHT22;10974;51.034;3.744;2022-10-16T04:17:50;13.40;99.90
21625;DHT22;10974;51.034;3.744;2022-10-16T04:20:16;13.40;99.90
21625;DHT22;10974;51.034;3.744;2022-10-16T04:22:42;13.30;99.90
21625;DHT22;10974;51.034;3.744;2022-10-16T04:25:07;13.30;99.90
21625;DHT22;10974;51.034;3.744;2022-10-16T04:27:33;13.30;99.90
21625;DHT22;10974;51.034;3.744;2022-10-16T04:29:59;13.30;99.90
21625;DHT22;10974;51.034;3.744;2022-10-16T04:32:26;13.30;99.90
21625;DHT22;10974;51.034;3.744;2022-10-16T04:34:52;13.30;99.90
21625;DHT22;10974;51.034;3.744;2022-10-16T04:37:18;13.20;99.90
21625;DHT22;10974;51.034;3.744;2022-10-16T04:39:44;13.30;99.90
21625;DHT22;10974;51.034;3.744;2022-10-16T04:42:10;13.30;99.90
21625;DHT22;10974;51.034;3.744;2022-10-16T04:44:36;13.30;99.90
21625;DHT22;10974;51.034;3.744;2022-10-16T04:47:02;13.30;99.90
21625;DHT22;10974;51.034;3.744;2022-10-16T04:49:28;13.20;99.90
21625;DHT22;10974;51.034;3.744;2022-10-16T04:51:53;13.20;99.90
21625;DHT22;10974;51.034;3.744;2022-10-16T04:54:19;13.20;99.90
21625;DHT22;10974;51.034;3.744;2022-10-16T04:56:45;13.30;99.90
21625;DHT22;10974;51.034;3.744;2022-10-16T04:59:15;13.30;99.90
21625;DHT22;10974;51.034;3.744;2022-10-16T05:01:41;13.30;99.90
21625;DHT22;10974;51.034;3.744;2022-10-16T05:04:07;13.20;99.90
21625;DHT22;10974;51.034;3.744;2022-10-16T05:06:33;13.20;99.90
21625;DHT22;10974;51.034;3.744;2022-10-16T05:08:58;13.20;99.90
21625;DHT22;10974;51.034;3.744;2022-10-16T05:11:24;13.20;99.90
21625;DHT22;10974;51.034;3.744;2022-10-16T05:13:49;13.30;99.90
21625;DHT22;10974;51.034;3.744;2022-10-16T05:16:15;13.30;99.90
21625;DHT22;10974;51.034;3.744;2022-10-16T05:18:41;13.20;99.90
21625;DHT22;10974;51.034;3.744;2022-10-16T05:21:07;13.30;99.90
21625;DHT22;10974;51.034;3.744;2022-10-16T05:23:32;13.30;99.90
21625;DHT22;10974;51.034;3.744;2022-10-16T05:25:59;13.40;99.90
21625;DHT22;10974;51.034;3.744;2022-10-16T05:28:29;13.30;99.90
21625;DHT22;10974;51.034;3.744;2022-10-16T05:30:56;13.40;99.90
21625;DHT22;10974;51.034;3.744;2022-10-16T05:33:23;13.40;99.90
21625;DHT22;10974;51.034;3.744;2022-10-16T05:35:50;13.40;99.90
21625;DHT22;10974;51.034;3.744;2022-10-16T05:38:18;13.50;99.90
21625;DHT22;10974;51.034;3.744;2022-10-16T05:40:51;13.50;99.90
21625;DHT22;10974;51.034;3.744;2022-10-16T05:43:18;13.50;99.90
21625;DHT22;10974;51.034;3.744;2022-10-16T05:45:43;13.50;99.90
21625;DHT22;10974;51.034;3.744;2022-10-16T05:48:09;13.60;99.90
21625;DHT22;10974;51.034;3.744;2022-10-16T05:50:35;13.60;99.90
21625;DHT22;10974;51.034;3.744;2022-10-16T05:53:00;13.50;99.90
21625;DHT22;10974;51.034;3.744;2022-10-16T05:55:26;13.50;99.90
21625;DHT22;10974;51.034;3.744;2022-10-16T05:57:54;13.50;99.90
21625;DHT22;10974;51.034;3.744;2022-10-16T06:00:20;13.90;99.90
21625;DHT22;10974;51.034;3.744;2022-10-16T06:02:45;14.60;99.90
21625;DHT22;10974;51.034;3.744;2022-10-16T06:05:11;15.30;99.90
21625;DHT22;10974;51.034;3.744;2022-10-16T06:07:37;15.40;99.90
21625;DHT22;10974;51.034;3.744;2022-10-16T06:10:03;15.90;99.90
21625;DHT22;10974;51.034;3.744;2022-10-16T06:12:30;16.00;99.90
21625;DHT22;10974;51.034;3.744;2022-10-16T06:14:55;15.90;99.90
21625;DHT22;10974;51.034;3.744;2022-10-16T06:17:21;16.20;99.90
21625;DHT22;10974;51.034;3.744;2022-10-16T06:19:46;16.50;99.90
21625;DHT22;10974;51.034;3.744;2022-10-16T06:22:12;16.70;99.90
21625;DHT22;10974;51.034;3.744;2022-10-16T06:24:38;16.70;99.90
21625;DHT22;10974;51.034;3.744;2022-10-16T06:27:04;16.90;99.90
21625;DHT22;10974;51.034;3.744;2022-10-16T06:29:30;16.80;99.90
21625;DHT22;10974;51.034;3.744;2022-10-16T06:31:55;16.80;99.90
21625;DHT22;10974;51.034;3.744;2022-10-16T06:34:21;16.90;99.90
21625;DHT22;10974;51.034;3.744;2022-10-16T06:36:47;17.20;99.90
21625;DHT22;10974;51.034;3.744;2022-10-16T06:39:12;17.30;99.90
21625;DHT22;10974;51.034;3.744;2022-10-16T06:41:38;17.20;99.90
21625;DHT22;10974;51.034;3.744;2022-10-16T06:44:07;16.90;99.90
21625;DHT22;10974;51.034;3.744;2022-10-16T06:46:33;17.00;99.90
21625;DHT22;10974;51.034;3.744;2022-10-16T06:48:59;17.30;99.90
21625;DHT22;10974;51.034;3.744;2022-10-16T06:51:25;17.30;99.90
21625;DHT22;10974;51.034;3.744;2022-10-16T06:53:53;17.60;99.90
21625;DHT22;10974;51.034;3.744;2022-10-16T06:56:20;17.50;99.90
21625;DHT22;10974;51.034;3.744;2022-10-16T06:58:46;17.40;99.90
21625;DHT22;10974;51.034;3.744;2022-10-16T07:01:13;17.00;99.90
21625;DHT22;10974;51.034;3.744;2022-10-16T07:03:41;17.20;99.90
21625;DHT22;10974;51.034;3.744;2022-10-16T07:06:09;17.00;99.90
21625;DHT22;10974;51.034;3.744;2022-10-16T07:08:37;16.90;99.90
21625;DHT22;10974;51.034;3.744;2022-10-16T07:11:07;16.70;99.90
21625;DHT22;10974;51.034;3.744;2022-10-16T07:13:34;16.80;99.90
21625;DHT22;10974;51.034;3.744;2022-10-16T07:16:20;16.90;99.90
21625;DHT22;10974;51.034;3.744;2022-10-16T07:18:46;16.60;99.90
21625;DHT22;10974;51.034;3.744;2022-10-16T07:21:16;16.50;99.90
21625;DHT22;10974;51.034;3.744;2022-10-16T07:23:42;16.60;99.90
21625;DHT22;10974;51.034;3.744;2022-10-16T07:26:09;16.60;99.90
21625;DHT22;10974;51.034;3.744;2022-10-16T07:28:35;16.70;99.90
21625;DHT22;10974;51.034;3.744;2022-10-16T07:31:06;16.70;99.90
21625;DHT22;10974;51.034;3.744;2022-10-16T07:33:33;16.70;99.90
21625;DHT22;10974;51.034;3.744;2022-10-16T07:35:59;17.10;99.90
21625;DHT22;10974;51.034;3.744;2022-10-16T07:38:25;17.00;99.90
21625;DHT22;10974;51.034;3.744;2022-10-16T07:41:04;16.60;99.90
21625;DHT22;10974;51.034;3.744;2022-10-16T07:43:30;16.70;99.90
21625;DHT22;10974;51.034;3.744;2022-10-16T07:45:57;16.80;99.90
21625;DHT22;10974;51.034;3.744;2022-10-16T07:48:23;16.80;99.90
21625;DHT22;10974;51.034;3.744;2022-10-16T07:50:49;16.40;99.90
21625;DHT22;10974;51.034;3.744;2022-10-16T07:53:16;16.20;99.90
21625;DHT22;10974;51.034;3.744;2022-10-16T07:55:42;16.10;99.90
21625;DHT22;10974;51.034;3.744;2022-10-16T07:58:07;16.00;99.90
21625;DHT22;10974;51.034;3.744;2022-10-16T08:00:35;16.00;99.90
21625;DHT22;10974;51.034;3.744;2022-10-16T08:03:00;15.90;99.90
21625;DHT22;10974;51.034;3.744;2022-10-16T08:05:27;15.90;99.90
21625;DHT22;10974;51.034;3.744;2022-10-16T08:07:54;15.90;99.90
21625;DHT22;10974;51.034;3.744;2022-10-16T08:10:21;16.00;99.90
21625;DHT22;10974;51.034;3.744;2022-10-16T08:12:47;15.90;99.90
21625;DHT22;10974;51.034;3.744;2022-10-16T08:15:12;15.90;99.90
21625;DHT22;10974;51.034;3.744;2022-10-16T08:17:38;16.00;99.90
21625;DHT22;10974;51.034;3.744;2022-10-16T08:20:05;16.00;99.90
21625;DHT22;10974;51.034;3.744;2022-10-16T08:22:31;16.00;99.90
21625;DHT22;10974;51.034;3.744;2022-10-16T08:24:57;16.20;99.90
21625;DHT22;10974;51.034;3.744;2022-10-16T08:27:22;16.30;99.90
21625;DHT22;10974;51.034;3.744;2022-10-16T08:29:51;16.70;99.90
21625;DHT22;10974;51.034;3.744;2022-10-16T08:32:17;17.20;99.90
21625;DHT22;10974;51.034;3.744;2022-10-16T08:34:43;17.10;99.90
21625;DHT22;10974;51.034;3.744;2022-10-16T08:37:08;16.90;99.90
21625;DHT22;10974;51.034;3.744;2022-10-16T08:39:36;16.70;99.90
21625;DHT22;10974;51.034;3.744;2022-10-16T08:48:00;16.50;99.90
21625;DHT22;10974;51.034;3.744;2022-10-16T08:50:31;16.60;99.90
21625;DHT22;10974;51.034;3.744;2022-10-16T08:52:58;16.70;99.90
21625;DHT22;10974;51.034;3.744;2022-10-16T08:55:43;16.70;99.90
21625;DHT22;10974;51.034;3.744;2022-10-16T08:58:26;16.80;99.90
21625;DHT22;10974;51.034;3.744;2022-10-16T09:00:58;17.10;99.90
21625;DHT22;10974;51.034;3.744;2022-10-16T09:06:31;17.10;99.90
21625;DHT22;10974;51.034;3.744;2022-10-16T09:09:13;17.30;99.90
21625;DHT22;10974;51.034;3.744;2022-10-16T09:17:00;17.70;99.90
21625;DHT22;10974;51.034;3.744;2022-10-16T09:19:37;17.90;99.90
21625;DHT22;10974;51.034;3.744;2022-10-16T09:22:14;18.10;99.90
21625;DHT22;10974;51.034;3.744;2022-10-16T09:24:40;18.20;99.90
21625;DHT22;10974;51.034;3.744;2022-10-16T09:27:14;18.40;99.90
21625;DHT22;10974;51.034;3.744;2022-10-16T09:29:40;18.50;99.90
21625;DHT22;10974;51.034;3.744;2022-10-16T09:32:20;18.70;99.90
21625;DHT22;10974;51.034;3.744;2022-10-16T09:34:49;18.90;99.90
21625;DHT22;10974;51.034;3.744;2022-10-16T09:37:19;19.10;99.90
21625;DHT22;10974;51.034;3.744;2022-10-16T09:39:50;19.20;99.90
21625;DHT22;10974;51.034;3.744;2022-10-16T09:42:35;19.40;99.90
21625;DHT22;10974;51.034;3.744;2022-10-16T09:45:03;19.40;99.90
21625;DHT22;10974;51.034;3.744;2022-10-16T09:47:31;19.50;99.90
21625;DHT22;10974;51.034;3.744;2022-10-16T09:52:27;19.60;99.90
21625;DHT22;10974;51.034;3.744;2022-10-16T09:55:01;19.70;99.90
21625;DHT22;10974;51.034;3.744;2022-10-16T09:57:27;19.80;99.90
21625;DHT22;10974;51.034;3.744;2022-10-16T09:59:55;19.80;99.90
21625;DHT22;10974;51.034;3.744;2022-10-16T10:02:34;19.40;99.90
21625;DHT22;10974;51.034;3.744;2022-10-16T10:05:02;19.90;99.90
21625;DHT22;10974;51.034;3.744;2022-10-16T10:07:35;19.80;1.00
21625;DHT22;10974;51.034;3.744;2022-10-16T10:10:05;19.60;99.90
21625;DHT22;10974;51.034;3.744;2022-10-16T10:12:32;20.00;99.90
21625;DHT22;10974;51.034;3.744;2022-10-16T10:15:07;19.70;99.90
21625;DHT22;10974;51.034;3.744;2022-10-16T10:17:33;19.90;99.90
21625;DHT22;10974;51.034;3.744;2022-10-16T10:20:13;20.40;99.90
21625;DHT22;10974;51.034;3.744;2022-10-16T10:22:43;20.50;99.90
21625;DHT22;10974;51.034;3.744;2022-10-16T10:30:22;20.00;1.00
21625;DHT22;10974;51.034;3.744;2022-10-16T10:33:00;20.00;1.00
21625;DHT22;10974;51.034;3.744;2022-10-16T10:46:58;19.50;39.10
21625;DHT22;10974;51.034;3.744;2022-10-16T10:49:57;19.10;99.90
21625;DHT22;10974;51.034;3.744;2022-10-16T11:06:18;20.10;99.90
21625;DHT22;10974;51.034;3.744;2022-10-16T11:08:48;20.70;1.00
21625;DHT22;10974;51.034;3.744;2022-10-16T11:11:24;21.00;1.00
21625;DHT22;10974;51.034;3.744;2022-10-16T11:14:02;21.30;1.00
21625;DHT22;10974;51.034;3.744;2022-10-16T11:25:27;21.20;1.00
21625;DHT22;10974;51.034;3.744;2022-10-16T11:28:05;21.50;99.90
21625;DHT22;10974;51.034;3.744;2022-10-16T11:30:59;21.50;1.00
21625;DHT22;10974;51.034;3.744;2022-10-16T11:33:44;21.30;97.10
21625;DHT22;10974;51.034;3.744;2022-10-16T11:36:25;20.80;1.00
21625;DHT22;10974;51.034;3.744;2022-10-16T11:39:02;20.50;99.90
21625;DHT22;10974;51.034;3.744;2022-10-16T11:41:37;19.90;99.90
21625;DHT22;10974;51.034;3.744;2022-10-16T11:44:14;20.10;1.00
21625;DHT22;10974;51.034;3.744;2022-10-16T11:46:48;20.40;86.60
21625;DHT22;10974;51.034;3.744;2022-10-16T11:49:19;20.70;1.00
21625;DHT22;10974;51.034;3.744;2022-10-16T11:57:22;21.50;1.00
21625;DHT22;10974;51.034;3.744;2022-10-16T12:00:02;21.50;15.70
21625;DHT22;10974;51.034;3.744;2022-10-16T12:02:46;21.60;1.00
21625;DHT22;10974;51.034;3.744;2022-10-16T12:08:14;22.20;1.00
21625;DHT22;10974;51.034;3.744;2022-10-16T12:10:43;22.20;1.00
21625;DHT22;10974;51.034;3.744;2022-10-16T12:13:38;22.60;1.00
21625;DHT22;10974;51.034;3.744;2022-10-16T12:18:40;21.30;1.00
21625;DHT22;10974;51.034;3.744;2022-10-16T12:21:06;21.90;1.00
21625;DHT22;10974;51.034;3.744;2022-10-16T12:23:50;21.70;1.00
21625;DHT22;10974;51.034;3.744;2022-10-16T12:26:33;21.40;1.00
21625;DHT22;10974;51.034;3.744;2022-10-16T12:31:48;22.10;1.00
21625;DHT22;10974;51.034;3.744;2022-10-16T12:34:24;22.10;5.60
21625;DHT22;10974;51.034;3.744;2022-10-16T12:36:53;22.60;1.00
21625;DHT22;10974;51.034;3.744;2022-10-16T12:39:24;22.10;1.00
21625;DHT22;10974;51.034;3.744;2022-10-16T12:42:04;22.30;1.00
21625;DHT22;10974;51.034;3.744;2022-10-16T12:44:35;22.90;99.90
21625;DHT22;10974;51.034;3.744;2022-10-16T12:47:01;22.30;99.90
21625;DHT22;10974;51.034;3.744;2022-10-16T12:49:37;22.60;99.90
21625;DHT22;10974;51.034;3.744;2022-10-16T12:52:04;22.60;98.40
21625;DHT22;10974;51.034;3.744;2022-10-16T12:54:37;22.30;99.90
21625;DHT22;10974;51.034;3.744;2022-10-16T13:05:30;21.00;1.00
21625;DHT22;10974;51.034;3.744;2022-10-16T13:22:11;19.80;1.00
21625;DHT22;10974;51.034;3.744;2022-10-16T13:24:56;20.00;1.00
21625;DHT22;10974;51.034;3.744;2022-10-16T13:27:45;19.80;1.00
21625;DHT22;10974;51.034;3.744;2022-10-16T13:30:23;19.90;91.10
21625;DHT22;10974;51.034;3.744;2022-10-16T13:33:07;19.70;1.00
21625;DHT22;10974;51.034;3.744;2022-10-16T13:35:36;19.80;99.90
21625;DHT22;10974;51.034;3.744;2022-10-16T13:38:13;19.60;1.00
21625;DHT22;10974;51.034;3.744;2022-10-16T13:43:50;19.80;1.00
21625;DHT22;10974;51.034;3.744;2022-10-16T13:48:44;20.00;99.90
21625;DHT22;10974;51.034;3.744;2022-10-16T13:51:18;19.70;1.00
21625;DHT22;10974;51.034;3.744;2022-10-16T13:53:44;19.70;1.00
21625;DHT22;10974;51.034;3.744;2022-10-16T13:56:16;19.60;1.00
21625;DHT22;10974;51.034;3.744;2022-10-16T13:58:42;19.50;99.90
21625;DHT22;10974;51.034;3.744;2022-10-16T14:01:27;19.30;99.90
21625;DHT22;10974;51.034;3.744;2022-10-16T14:04:02;19.20;1.00
21625;DHT22;10974;51.034;3.744;2022-10-16T14:06:29;19.30;1.00
21625;DHT22;10974;51.034;3.744;2022-10-16T14:11:31;19.30;99.90
21625;DHT22;10974;51.034;3.744;2022-10-16T14:13:58;19.20;99.90
21625;DHT22;10974;51.034;3.744;2022-10-16T14:16:27;19.30;1.00
21625;DHT22;10974;51.034;3.744;2022-10-16T14:19:01;19.10;1.00
21625;DHT22;10974;51.034;3.744;2022-10-16T14:21:28;19.40;1.00
21625;DHT22;10974;51.034;3.744;2022-10-16T14:23:54;19.30;1.00
21625;DHT22;10974;51.034;3.744;2022-10-16T14:26:24;19.10;99.90
21625;DHT22;10974;51.034;3.744;2022-10-16T14:29:08;19.00;1.00
21625;DHT22;10974;51.034;3.744;2022-10-16T14:31:35;19.00;1.00
21625;DHT22;10974;51.034;3.744;2022-10-16T14:34:02;19.00;1.00
21625;DHT22;10974;51.034;3.744;2022-10-16T14:36:29;18.90;99.90
21625;DHT22;10974;51.034;3.744;2022-10-16T14:39:02;18.90;1.00
21625;DHT22;10974;51.034;3.744;2022-10-16T14:41:30;18.90;99.90
21625;DHT22;10974;51.034;3.744;2022-10-16T14:44:02;18.90;99.90
21625;DHT22;10974;51.034;3.744;2022-10-16T14:46:35;18.80;1.00
21625;DHT22;10974;51.034;3.744;2022-10-16T14:51:36;18.70;46.10
21625;DHT22;10974;51.034;3.744;2022-10-16T14:54:02;18.60;99.90
21625;DHT22;10974;51.034;3.744;2022-10-16T14:56:48;18.60;1.00
21625;DHT22;10974;51.034;3.744;2022-10-16T14:59:39;18.60;1.00
21625;DHT22;10974;51.034;3.744;2022-10-16T15:02:30;18.50;99.00
21625;DHT22;10974;51.034;3.744;2022-10-16T15:04:56;18.50;99.90
21625;DHT22;10974;51.034;3.744;2022-10-16T15:07:22;18.50;99.90
21625;DHT22;10974;51.034;3.744;2022-10-16T15:09:48;18.50;99.90
21625;DHT22;10974;51.034;3.744;2022-10-16T15:12:14;18.40;99.90
21625;DHT22;10974;51.034;3.744;2022-10-16T15:14:39;18.40;99.90
21625;DHT22;10974;51.034;3.744;2022-10-16T15:17:05;18.40;99.90
21625;DHT22;10974;51.034;3.744;2022-10-16T15:19:31;18.30;1.00
21625;DHT22;10974;51.034;3.744;2022-10-16T15:21:56;18.20;99.90
21625;DHT22;10974;51.034;3.744;2022-10-16T15:24:22;18.30;99.90
21625;DHT22;10974;51.034;3.744;2022-10-16T15:26:48;18.30;99.90
21625;DHT22;10974;51.034;3.744;2022-10-16T15:29:14;18.20;1.00
21625;DHT22;10974;51.034;3.744;2022-10-16T15:31:40;18.20;1.00
21625;DHT22;10974;51.034;3.744;2022-10-16T15:34:09;18.10;99.90
21625;DHT22;10974;51.034;3.744;2022-10-16T15:36:37;18.10;54.80
21625;DHT22;10974;51.034;3.744;2022-10-16T15:39:04;18.00;40.30
21625;DHT22;10974;51.034;3.744;2022-10-16T15:41:30;18.10;1.00
21625;DHT22;10974;51.034;3.744;2022-10-16T15:43:56;18.10;1.00
21625;DHT22;10974;51.034;3.744;2022-10-16T15:46:23;18.10;99.90
21625;DHT22;10974;51.034;3.744;2022-10-16T15:48:50;18.00;1.00
21625;DHT22;10974;51.034;3.744;2022-10-16T15:51:16;17.80;99.90
21625;DHT22;10974;51.034;3.744;2022-10-16T15:53:42;17.90;99.90
21625;DHT22;10974;51.034;3.744;2022-10-16T15:56:09;17.90;99.90
21625;DHT22;10974;51.034;3.744;2022-10-16T15:58:36;17.80;99.90
21625;DHT22;10974;51.034;3.744;2022-10-16T16:01:02;18.20;99.90
21625;DHT22;10974;51.034;3.744;2022-10-16T16:03:30;18.70;99.90
21625;DHT22;10974;51.034;3.744;2022-10-16T16:05:56;19.00;99.90
21625;DHT22;10974;51.034;3.744;2022-10-16T16:08:22;19.30;1.00
21625;DHT22;10974;51.034;3.744;2022-10-16T16:11:07;19.60;99.90
21625;DHT22;10974;51.034;3.744;2022-10-16T16:13:33;19.80;99.90
21625;DHT22;10974;51.034;3.744;2022-10-16T16:15:59;20.00;99.90
21625;DHT22;10974;51.034;3.744;2022-10-16T16:18:25;20.10;99.90
21625;DHT22;10974;51.034;3.744;2022-10-16T16:20:51;20.20;99.90
21625;DHT22;10974;51.034;3.744;2022-10-16T16:23:17;20.10;99.90
21625;DHT22;10974;51.034;3.744;2022-10-16T16:25:44;20.20;1.00
21625;DHT22;10974;51.034;3.744;2022-10-16T16:28:10;20.20;99.90
21625;DHT22;10974;51.034;3.744;2022-10-16T16:30:40;20.30;1.00
21625;DHT22;10974;51.034;3.744;2022-10-16T16:33:05;20.30;1.00
21625;DHT22;10974;51.034;3.744;2022-10-16T16:35:31;20.30;99.90
21625;DHT22;10974;51.034;3.744;2022-10-16T16:37:57;20.30;99.90
21625;DHT22;10974;51.034;3.744;2022-10-16T16:40:23;20.40;99.90
21625;DHT22;10974;51.034;3.744;2022-10-16T16:42:49;20.30;99.90
21625;DHT22;10974;51.034;3.744;2022-10-16T16:45:14;20.30;40.60
21625;DHT22;10974;51.034;3.744;2022-10-16T16:47:40;20.30;99.90
21625;DHT22;10974;51.034;3.744;2022-10-16T16:50:06;20.20;99.90
21625;DHT22;10974;51.034;3.744;2022-10-16T16:52:33;20.20;99.90
21625;DHT22;10974;51.034;3.744;2022-10-16T16:54:59;20.20;1.00
21625;DHT22;10974;51.034;3.744;2022-10-16T16:57:25;20.20;1.00
21625;DHT22;10974;51.034;3.744;2022-10-16T16:59:51;20.20;1.00
21625;DHT22;10974;51.034;3.744;2022-10-16T17:02:17;20.20;1.40
21625;DHT22;10974;51.034;3.744;2022-10-16T17:04:43;20.30;1.00
21625;DHT22;10974;51.034;3.744;2022-10-16T17:07:08;20.20;1.00
21625;DHT22;10974;51.034;3.744;2022-10-16T17:09:34;20.20;1.00
21625;DHT22;10974;51.034;3.744;2022-10-16T17:12:00;20.20;99.90
21625;DHT22;10974;51.034;3.744;2022-10-16T17:14:26;20.20;99.90
21625;DHT22;10974;51.034;3.744;2022-10-16T17:16:52;20.10;1.00
21625;DHT22;10974;51.034;3.744;2022-10-16T17:19:19;20.00;1.00
21625;DHT22;10974;51.034;3.744;2022-10-16T17:21:48;20.00;1.00
21625;DHT22;10974;51.034;3.744;2022-10-16T17:24:13;19.90;99.90
21625;DHT22;10974;51.034;3.744;2022-10-16T17:26:39;20.00;1.00
21625;DHT22;10974;51.034;3.744;2022-10-16T17:29:11;20.00;1.00
21625;DHT22;10974;51.034;3.744;2022-10-16T17:31:37;20.10;1.00
21625;DHT22;10974;51.034;3.744;2022-10-16T17:34:05;20.10;1.00
21625;DHT22;10974;51.034;3.744;2022-10-16T17:36:33;20.10;1.00
21625;DHT22;10974;51.034;3.744;2022-10-16T17:39:00;20.10;1.00
21625;DHT22;10974;51.034;3.744;2022-10-16T17:41:30;20.10;99.90
21625;DHT22;10974;51.034;3.744;2022-10-16T17:43:55;20.10;99.90
21625;DHT22;10974;51.034;3.744;2022-10-16T17:46:22;20.00;1.00
21625;DHT22;10974;51.034;3.744;2022-10-16T17:48:51;20.00;1.00
21625;DHT22;10974;51.034;3.744;2022-10-16T17:51:25;20.00;40.30
21625;DHT22;10974;51.034;3.744;2022-10-16T17:53:57;20.00;95.60
21625;DHT22;10974;51.034;3.744;2022-10-16T17:56:24;19.90;1.00
21625;DHT22;10974;51.034;3.744;2022-10-16T17:58:52;19.90;99.90
21625;DHT22;10974;51.034;3.744;2022-10-16T18:01:29;19.90;99.90
21625;DHT22;10974;51.034;3.744;2022-10-16T18:04:06;19.90;1.00
21625;DHT22;10974;51.034;3.744;2022-10-16T18:06:33;19.90;1.00
21625;DHT22;10974;51.034;3.744;2022-10-16T18:09:00;20.00;1.00
21625;DHT22;10974;51.034;3.744;2022-10-16T18:11:26;20.00;1.00
21625;DHT22;10974;51.034;3.744;2022-10-16T18:13:56;20.00;99.90
21625;DHT22;10974;51.034;3.744;2022-10-16T18:16:23;19.90;1.00
21625;DHT22;10974;51.034;3.744;2022-10-16T18:18:49;20.00;99.90
21625;DHT22;10974;51.034;3.744;2022-10-16T18:21:17;20.00;1.00
21625;DHT22;10974;51.034;3.744;2022-10-16T18:23:43;20.00;1.00
21625;DHT22;10974;51.034;3.744;2022-10-16T18:26:10;20.00;85.50
21625;DHT22;10974;51.034;3.744;2022-10-16T18:28:36;19.90;99.90
21625;DHT22;10974;51.034;3.744;2022-10-16T18:31:05;19.90;1.00
21625;DHT22;10974;51.034;3.744;2022-10-16T18:33:31;20.00;22.80
21625;DHT22;10974;51.034;3.744;2022-10-16T18:36:08;20.00;99.90
21625;DHT22;10974;51.034;3.744;2022-10-16T18:38:34;19.90;99.90
21625;DHT22;10974;51.034;3.744;2022-10-16T18:41:00;19.90;99.90
21625;DHT22;10974;51.034;3.744;2022-10-16T18:43:27;19.90;99.90
21625;DHT22;10974;51.034;3.744;2022-10-16T18:46:03;19.80;99.90
21625;DHT22;10974;51.034;3.744;2022-10-16T18:48:30;19.80;99.90
21625;DHT22;10974;51.034;3.744;2022-10-16T18:51:30;19.80;99.90
21625;DHT22;10974;51.034;3.744;2022-10-16T18:53:59;19.70;99.90
21625;DHT22;10974;51.034;3.744;2022-10-16T18:56:26;19.70;99.90
21625;DHT22;10974;51.034;3.744;2022-10-16T18:58:52;19.70;99.90
21625;DHT22;10974;51.034;3.744;2022-10-16T19:01:23;19.60;99.90
21625;DHT22;10974;51.034;3.744;2022-10-16T19:03:53;19.50;99.90
21625;DHT22;10974;51.034;3.744;2022-10-16T19:06:20;19.60;99.90
21625;DHT22;10974;51.034;3.744;2022-10-16T19:08:45;19.60;99.90
21625;DHT22;10974;51.034;3.744;2022-10-16T19:11:16;19.60;99.90
21625;DHT22;10974;51.034;3.744;2022-10-16T19:13:43;19.60;99.90
21625;DHT22;10974;51.034;3.744;2022-10-16T19:16:11;19.60;99.90
21625;DHT22;10974;51.034;3.744;2022-10-16T19:18:37;19.50;99.90
21625;DHT22;10974;51.034;3.744;2022-10-16T19:21:10;19.50;99.90
21625;DHT22;10974;51.034;3.744;2022-10-16T19:23:37;19.50;99.90
21625;DHT22;10974;51.034;3.744;2022-10-16T19:26:08;19.40;99.90
21625;DHT22;10974;51.034;3.744;2022-10-16T19:28:34;19.50;99.90
21625;DHT22;10974;51.034;3.744;2022-10-16T19:31:06;19.40;99.90
21625;DHT22;10974;51.034;3.744;2022-10-16T19:33:32;19.30;99.90
21625;DHT22;10974;51.034;3.744;2022-10-16T19:38:32;19.50;99.90
21625;DHT22;10974;51.034;3.744;2022-10-16T19:41:12;19.40;99.90
21625;DHT22;10974;51.034;3.744;2022-10-16T19:43:39;19.40;99.90
21625;DHT22;10974;51.034;3.744;2022-10-16T19:46:06;19.30;99.90
21625;DHT22;10974;51.034;3.744;2022-10-16T19:48:33;19.40;99.90
21625;DHT22;10974;51.034;3.744;2022-10-16T19:50:59;19.40;99.90
21625;DHT22;10974;51.034;3.744;2022-10-16T19:53:25;19.30;99.90
21625;DHT22;10974;51.034;3.744;2022-10-16T19:55:53;19.40;99.90
21625;DHT22;10974;51.034;3.744;2022-10-16T19:58:19;19.40;99.90
21625;DHT22;10974;51.034;3.744;2022-10-16T20:00:45;19.40;99.90
21625;DHT22;10974;51.034;3.744;2022-10-16T20:03:10;19.30;99.90
21625;DHT22;10974;51.034;3.744;2022-10-16T20:05:36;19.30;99.90
21625;DHT22;10974;51.034;3.744;2022-10-16T20:08:02;19.40;99.90
21625;DHT22;10974;51.034;3.744;2022-10-16T20:10:27;19.40;99.90
21625;DHT22;10974;51.034;3.744;2022-10-16T20:12:53;19.30;99.90
21625;DHT22;10974;51.034;3.744;2022-10-16T20:15:20;19.30;99.90
21625;DHT22;10974;51.034;3.744;2022-10-16T20:17:45;19.40;99.90
21625;DHT22;10974;51.034;3.744;2022-10-16T20:20:11;19.40;99.90
21625;DHT22;10974;51.034;3.744;2022-10-16T20:22:37;19.20;99.90
21625;DHT22;10974;51.034;3.744;2022-10-16T20:25:03;19.20;99.90
21625;DHT22;10974;51.034;3.744;2022-10-16T20:27:28;19.20;99.90
21625;DHT22;10974;51.034;3.744;2022-10-16T20:29:55;19.00;99.90
21625;DHT22;10974;51.034;3.744;2022-10-16T20:32:21;18.90;99.90
21625;DHT22;10974;51.034;3.744;2022-10-16T20:34:47;19.00;99.90
21625;DHT22;10974;51.034;3.744;2022-10-16T20:37:15;19.00;99.90
21625;DHT22;10974;51.034;3.744;2022-10-16T20:39:40;19.00;99.90
21625;DHT22;10974;51.034;3.744;2022-10-16T20:42:06;19.00;99.90
21625;DHT22;10974;51.034;3.744;2022-10-16T20:44:33;19.10;99.90
21625;DHT22;10974;51.034;3.744;2022-10-16T20:46:59;19.10;99.90
21625;DHT22;10974;51.034;3.744;2022-10-16T20:49:24;19.20;99.90
21625;DHT22;10974;51.034;3.744;2022-10-16T20:51:50;19.20;99.90
21625;DHT22;10974;51.034;3.744;2022-10-16T20:54:16;19.10;99.90
21625;DHT22;10974;51.034;3.744;2022-10-16T20:56:42;19.00;99.90
21625;DHT22;10974;51.034;3.744;2022-10-16T20:59:10;18.90;99.90
21625;DHT22;10974;51.034;3.744;2022-10-16T21:01:36;18.80;99.90
21625;DHT22;10974;51.034;3.744;2022-10-16T21:04:05;18.80;99.90
21625;DHT22;10974;51.034;3.744;2022-10-16T21:06:33;18.50;99.90
21625;DHT22;10974;51.034;3.744;2022-10-16T21:09:00;18.70;99.90
21625;DHT22;10974;51.034;3.744;2022-10-16T21:11:30;18.90;99.90
21625;DHT22;10974;51.034;3.744;2022-10-16T21:13:58;19.00;99.90
21625;DHT22;10974;51.034;3.744;2022-10-16T21:16:25;19.10;99.90
21625;DHT22;10974;51.034;3.744;2022-10-16T21:18:52;19.20;99.90
21625;DHT22;10974;51.034;3.744;2022-10-16T21:21:26;19.20;99.90
